sensor_id;sensor_type;location;lat;lon;timestamp;temperature;humidity
4293;DHT22;2160;51.172;6.808;2022-12-17T05:04:21;3.20;99.90
4293;DHT22;2160;51.172;6.808;2022-12-17T05:07:30;3.00;99.90
4293;DHT22;2160;51.172;6.808;2022-12-17T05:10:39;3.10;99.90
4293;DHT22;2160;51.172;6.808;2022-12-17T05:13:38;3.00;99.90
4293;DHT22;2160;51.172;6.808;2022-12-17T05:16:25;2.90;99.90
4293;DHT22;2160;51.172;6.808;2022-12-17T05:19:10;3.00;99.90
4293;DHT22;2160;51.172;6.808;2022-12-17T05:21:55;3.00;99.90
4293;DHT22;2160;51.172;6.808;2022-12-17T05:24:39;2.90;99.90
4293;DHT22;2160;51.172;6.808;2022-12-17T05:27:26;2.90;99.90
4293;DHT22;2160;51.172;6.808;2022-12-17T05:30:25;2.80;99.90
4293;DHT22;2160;51.172;6.808;2022-12-17T05:33:10;2.90;99.90
4293;DHT22;2160;51.172;6.808;2022-12-17T05:35:52;2.70;99.90
4293;DHT22;2160;51.172;6.808;2022-12-17T05:38:43;2.60;99.90
4293;DHT22;2160;51.172;6.808;2022-12-17T05:41:28;2.90;99.90
4293;DHT22;2160;51.172;6.808;2022-12-17T05:44:12;2.60;99.90
4293;DHT22;2160;51.172;6.808;2022-12-17T05:46:57;3.00;99.90
4293;DHT22;2160;51.172;6.808;2022-12-17T05:49:43;2.70;99.90
4293;DHT22;2160;51.172;6.808;2022-12-17T05:52:29;2.70;99.90
4293;DHT22;2160;51.172;6.808;2022-12-17T05:55:14;2.50;99.90
4293;DHT22;2160;51.172;6.808;2022-12-17T05:58:02;2.30;99.90
4293;DHT22;2160;51.172;6.808;2022-12-17T06:00:46;2.30;99.90
4293;DHT22;2160;51.172;6.808;2022-12-17T06:03:31;2.40;99.90
4293;DHT22;2160;51.172;6.808;2022-12-17T06:06:15;2.40;99.90
4293;DHT22;2160;51.172;6.808;2022-12-17T06:09:01;2.50;99.90
4293;DHT22;2160;51.172;6.808;2022-12-17T06:11:46;2.60;99.90
4293;DHT22;2160;51.172;6.808;2022-12-17T06:14:30;2.70;99.90
4293;DHT22;2160;51.172;6.808;2022-12-17T06:17:13;2.90;99.90
4293;DHT22;2160;51.172;6.808;2022-12-17T06:19:57;2.80;99.90
4293;DHT22;2160;51.172;6.808;2022-12-17T06:22:42;2.80;99.90
4293;DHT22;2160;51.172;6.808;2022-12-17T06:25:27;2.70;99.90
4293;DHT22;2160;51.172;6.808;2022-12-17T06:28:12;2.70;99.90
4293;DHT22;2160;51.172;6.808;2022-12-17T06:30:56;2.70;99.90
4293;DHT22;2160;51.172;6.808;2022-12-17T06:33:41;2.50;99.90
4293;DHT22;2160;51.172;6.808;2022-12-17T06:36:26;2.50;99.90
4293;DHT22;2160;51.172;6.808;2022-12-17T06:39:10;2.60;99.90
4293;DHT22;2160;51.172;6.808;2022-12-17T06:41:56;2.50;99.90
4293;DHT22;2160;51.172;6.808;2022-12-17T06:44:40;2.60;99.90
4293;DHT22;2160;51.172;6.808;2022-12-17T06:47:24;2.60;99.90
4293;DHT22;2160;51.172;6.808;2022-12-17T06:50:09;2.60;99.90
4293;DHT22;2160;51.172;6.808;2022-12-17T06:52:58;2.60;99.90
4293;DHT22;2160;51.172;6.808;2022-12-17T06:55:58;2.60;99.90
4293;DHT22;2160;51.172;6.808;2022-12-17T06:58:44;2.60;99.90
4293;DHT22;2160;51.172;6.808;2022-12-17T07:01:29;2.50;99.90
4293;DHT22;2160;51.172;6.808;2022-12-17T07:04:13;2.50;99.90
4293;DHT22;2160;51.172;6.808;2022-12-17T07:06:57;2.50;99.90
4293;DHT22;2160;51.172;6.808;2022-12-17T07:09:43;2.40;99.90
4293;DHT22;2160;51.172;6.808;2022-12-17T07:12:27;2.30;99.90
4293;DHT22;2160;51.172;6.808;2022-12-17T07:15:13;2.30;99.90
4293;DHT22;2160;51.172;6.808;2022-12-17T07:17:59;2.20;99.90
4293;DHT22;2160;51.172;6.808;2022-12-17T07:20:52;2.30;99.90
4293;DHT22;2160;51.172;6.808;2022-12-17T07:23:37;2.40;99.90
4293;DHT22;2160;51.172;6.808;2022-12-17T07:26:21;2.10;99.90
4293;DHT22;2160;51.172;6.808;2022-12-17T07:29:05;2.10;99.90
4293;DHT22;2160;51.172;6.808;2022-12-17T07:31:51;2.10;99.90
4293;DHT22;2160;51.172;6.808;2022-12-17T07:34:35;2.20;99.90
4293;DHT22;2160;51.172;6.808;2022-12-17T07:37:20;2.30;99.90
4293;DHT22;2160;51.172;6.808;2022-12-17T07:40:05;2.20;99.90
4293;DHT22;2160;51.172;6.808;2022-12-17T07:42:50;2.30;99.90
4293;DHT22;2160;51.172;6.808;2022-12-17T07:45:34;2.10;99.90
4293;DHT22;2160;51.172;6.808;2022-12-17T07:48:20;2.10;99.90
4293;DHT22;2160;51.172;6.808;2022-12-17T07:51:04;2.00;99.90
4293;DHT22;2160;51.172;6.808;2022-12-17T07:53:49;1.90;99.90
4293;DHT22;2160;51.172;6.808;2022-12-17T07:56:33;1.70;99.90
4293;DHT22;2160;51.172;6.808;2022-12-17T07:59:17;1.60;99.90
4293;DHT22;2160;51.172;6.808;2022-12-17T08:02:02;1.60;99.90
4293;DHT22;2160;51.172;6.808;2022-12-17T08:04:47;1.50;99.90
4293;DHT22;2160;51.172;6.808;2022-12-17T08:07:32;1.50;99.90
4293;DHT22;2160;51.172;6.808;2022-12-17T08:10:16;1.60;99.90
4293;DHT22;2160;51.172;6.808;2022-12-17T08:13:03;1.70;99.90
4293;DHT22;2160;51.172;6.808;2022-12-17T08:15:48;1.60;99.90
4293;DHT22;2160;51.172;6.808;2022-12-17T08:18:32;1.60;99.90
4293;DHT22;2160;51.172;6.808;2022-12-17T08:21:18;1.70;99.90
4293;DHT22;2160;51.172;6.808;2022-12-17T08:24:03;1.40;99.90
4293;DHT22;2160;51.172;6.808;2022-12-17T08:26:48;1.50;99.90
4293;DHT22;2160;51.172;6.808;2022-12-17T08:29:32;1.60;99.90
4293;DHT22;2160;51.172;6.808;2022-12-17T08:32:17;1.60;99.90
4293;DHT22;2160;51.172;6.808;2022-12-17T08:35:02;1.50;99.90
4293;DHT22;2160;51.172;6.808;2022-12-17T08:37:47;1.60;99.90
4293;DHT22;2160;51.172;6.808;2022-12-17T08:40:32;1.40;99.90
4293;DHT22;2160;51.172;6.808;2022-12-17T08:43:16;1.10;99.90
4293;DHT22;2160;51.172;6.808;2022-12-17T08:46:01;1.10;99.90
4293;DHT22;2160;51.172;6.808;2022-12-17T08:48:45;0.80;99.90
4293;DHT22;2160;51.172;6.808;2022-12-17T08:51:29;0.70;99.90
4293;DHT22;2160;51.172;6.808;2022-12-17T08:54:26;0.70;99.90
4293;DHT22;2160;51.172;6.808;2022-12-17T08:57:11;0.80;99.90
4293;DHT22;2160;51.172;6.808;2022-12-17T08:59:55;0.90;99.90
4293;DHT22;2160;51.172;6.808;2022-12-17T09:02:39;1.00;99.90
4293;DHT22;2160;51.172;6.808;2022-12-17T09:05:23;0.90;99.90
4293;DHT22;2160;51.172;6.808;2022-12-17T09:08:08;0.90;99.90
4293;DHT22;2160;51.172;6.808;2022-12-17T09:10:53;0.80;99.90
4293;DHT22;2160;51.172;6.808;2022-12-17T09:13:38;0.60;99.90
4293;DHT22;2160;51.172;6.808;2022-12-17T09:16:22;0.60;99.90
4293;DHT22;2160;51.172;6.808;2022-12-17T09:19:09;0.60;99.90
4293;DHT22;2160;51.172;6.808;2022-12-17T09:21:53;0.60;99.90
4293;DHT22;2160;51.172;6.808;2022-12-17T09:24:38;0.70;99.90
4293;DHT22;2160;51.172;6.808;2022-12-17T09:27:23;0.60;99.90
4293;DHT22;2160;51.172;6.808;2022-12-17T09:30:09;0.70;99.90
4293;DHT22;2160;51.172;6.808;2022-12-17T09:32:53;0.80;99.90
4293;DHT22;2160;51.172;6.808;2022-12-17T09:35:39;0.90;99.90
4293;DHT22;2160;51.172;6.808;2022-12-17T09:38:23;0.80;99.90
4293;DHT22;2160;51.172;6.808;2022-12-17T09:41:17;0.60;99.90
4293;DHT22;2160;51.172;6.808;2022-12-17T09:44:10;0.70;99.90
4293;DHT22;2160;51.172;6.808;2022-12-17T09:47:01;0.50;99.90
4293;DHT22;2160;51.172;6.808;2022-12-17T09:49:46;0.50;99.90
4293;DHT22;2160;51.172;6.808;2022-12-17T09:52:33;0.60;99.90
4293;DHT22;2160;51.172;6.808;2022-12-17T09:55:20;0.50;99.90
4293;DHT22;2160;51.172;6.808;2022-12-17T09:58:18;0.50;99.90
4293;DHT22;2160;51.172;6.808;2022-12-17T10:01:05;0.50;99.90
4293;DHT22;2160;51.172;6.808;2022-12-17T10:03:49;0.50;99.90
4293;DHT22;2160;51.172;6.808;2022-12-17T10:06:34;0.60;99.90
4293;DHT22;2160;51.172;6.808;2022-12-17T10:09:19;0.70;99.90
4293;DHT22;2160;51.172;6.808;2022-12-17T10:12:11;0.30;99.90
4293;DHT22;2160;51.172;6.808;2022-12-17T10:14:56;0.30;99.90
4293;DHT22;2160;51.172;6.808;2022-12-17T10:17:42;0.10;99.90
4293;DHT22;2160;51.172;6.808;2022-12-17T10:20:30;0.20;99.90
4293;DHT22;2160;51.172;6.808;2022-12-17T10:23:23;0.30;99.90
4293;DHT22;2160;51.172;6.808;2022-12-17T10:26:07;0.40;99.90
4293;DHT22;2160;51.172;6.808;2022-12-17T10:29:01;0.40;99.90
4293;DHT22;2160;51.172;6.808;2022-12-17T10:31:45;0.40;99.90
4293;DHT22;2160;51.172;6.808;2022-12-17T10:34:28;0.70;99.90
4293;DHT22;2160;51.172;6.808;2022-12-17T10:37:19;0.80;99.90
4293;DHT22;2160;51.172;6.808;2022-12-17T10:40:16;0.80;99.90
4293;DHT22;2160;51.172;6.808;2022-12-17T10:43:19;0.70;99.90
4293;DHT22;2160;51.172;6.808;2022-12-17T10:46:04;0.70;99.90
4293;DHT22;2160;51.172;6.808;2022-12-17T10:48:48;0.70;99.90
4293;DHT22;2160;51.172;6.808;2022-12-17T10:51:35;0.70;99.90
4293;DHT22;2160;51.172;6.808;2022-12-17T10:54:22;0.70;99.90
4293;DHT22;2160;51.172;6.808;2022-12-17T10:57:23;0.60;99.90
4293;DHT22;2160;51.172;6.808;2022-12-17T11:00:23;0.40;99.90
4293;DHT22;2160;51.172;6.808;2022-12-17T11:03:29;0.50;99.90
4293;DHT22;2160;51.172;6.808;2022-12-17T11:06:19;0.70;99.90
4293;DHT22;2160;51.172;6.808;2022-12-17T11:09:21;0.80;99.90
4293;DHT22;2160;51.172;6.808;2022-12-17T11:12:08;0.80;99.90
4293;DHT22;2160;51.172;6.808;2022-12-17T11:14:56;0.70;99.90
4293;DHT22;2160;51.172;6.808;2022-12-17T11:17:43;0.70;99.90
4293;DHT22;2160;51.172;6.808;2022-12-17T11:20:38;0.60;99.90
4293;DHT22;2160;51.172;6.808;2022-12-17T11:23:22;0.80;99.90
4293;DHT22;2160;51.172;6.808;2022-12-17T11:26:11;1.00;99.90
4293;DHT22;2160;51.172;6.808;2022-12-17T11:28:57;1.00;99.90
4293;DHT22;2160;51.172;6.808;2022-12-17T11:31:58;0.80;99.90
4293;DHT22;2160;51.172;6.808;2022-12-17T11:34:57;0.90;99.90
4293;DHT22;2160;51.172;6.808;2022-12-17T11:37:50;0.80;99.90
4293;DHT22;2160;51.172;6.808;2022-12-17T11:40:38;0.80;99.90
4293;DHT22;2160;51.172;6.808;2022-12-17T11:43:29;0.70;99.90
4293;DHT22;2160;51.172;6.808;2022-12-17T11:46:26;0.90;99.90
4293;DHT22;2160;51.172;6.808;2022-12-17T11:49:22;0.80;99.90
4293;DHT22;2160;51.172;6.808;2022-12-17T11:52:14;0.90;99.90
4293;DHT22;2160;51.172;6.808;2022-12-17T11:55:07;1.00;99.90
4293;DHT22;2160;51.172;6.808;2022-12-17T11:57:57;1.00;99.90
4293;DHT22;2160;51.172;6.808;2022-12-17T12:00:53;0.90;99.90
4293;DHT22;2160;51.172;6.808;2022-12-17T12:03:47;0.80;99.90
4293;DHT22;2160;51.172;6.808;2022-12-17T12:06:39;0.90;99.90
4293;DHT22;2160;51.172;6.808;2022-12-17T12:09:34;0.80;99.90
4293;DHT22;2160;51.172;6.808;2022-12-17T12:12:32;0.80;99.90
4293;DHT22;2160;51.172;6.808;2022-12-17T12:15:28;0.80;99.90
4293;DHT22;2160;51.172;6.808;2022-12-17T12:18:23;0.80;99.90
4293;DHT22;2160;51.172;6.808;2022-12-17T12:21:28;0.80;99.90
4293;DHT22;2160;51.172;6.808;2022-12-17T12:24:25;0.80;99.90
4293;DHT22;2160;51.172;6.808;2022-12-17T12:27:19;1.10;99.90
4293;DHT22;2160;51.172;6.808;2022-12-17T12:30:10;1.20;99.90
4293;DHT22;2160;51.172;6.808;2022-12-17T12:33:01;1.10;99.90
4293;DHT22;2160;51.172;6.808;2022-12-17T12:35:50;1.20;99.90
4293;DHT22;2160;51.172;6.808;2022-12-17T12:38:39;1.10;99.90
4293;DHT22;2160;51.172;6.808;2022-12-17T12:41:32;1.00;99.90
4293;DHT22;2160;51.172;6.808;2022-12-17T12:44:34;1.00;99.90
4293;DHT22;2160;51.172;6.808;2022-12-17T12:47:24;1.00;99.90
4293;DHT22;2160;51.172;6.808;2022-12-17T12:50:16;0.80;99.90
4293;DHT22;2160;51.172;6.808;2022-12-17T12:53:06;1.00;99.90
4293;DHT22;2160;51.172;6.808;2022-12-17T12:55:52;1.00;99.90
4293;DHT22;2160;51.172;6.808;2022-12-17T12:58:37;0.80;99.90
4293;DHT22;2160;51.172;6.808;2022-12-17T13:01:32;0.90;99.90
4293;DHT22;2160;51.172;6.808;2022-12-17T13:04:30;0.80;99.90
4293;DHT22;2160;51.172;6.808;2022-12-17T13:07:21;0.80;99.90
4293;DHT22;2160;51.172;6.808;2022-12-17T13:09:51;0.90;99.90
4293;DHT22;2160;51.172;6.808;2022-12-17T13:12:32;1.20;99.90
4293;DHT22;2160;51.172;6.808;2022-12-17T13:15:20;1.20;99.90
4293;DHT22;2160;51.172;6.808;2022-12-17T13:17:58;1.10;99.90
4293;DHT22;2160;51.172;6.808;2022-12-17T13:20:28;1.00;99.90
4293;DHT22;2160;51.172;6.808;2022-12-17T13:23:16;1.10;99.90
4293;DHT22;2160;51.172;6.808;2022-12-17T13:25:44;1.10;99.90
4293;DHT22;2160;51.172;6.808;2022-12-17T13:28:28;1.00;99.90
4293;DHT22;2160;51.172;6.808;2022-12-17T13:31:00;0.80;99.90
4293;DHT22;2160;51.172;6.808;2022-12-17T13:33:32;1.00;99.90
4293;DHT22;2160;51.172;6.808;2022-12-17T13:36:07;1.20;99.90
4293;DHT22;2160;51.172;6.808;2022-12-17T13:38:44;1.30;99.90
4293;DHT22;2160;51.172;6.808;2022-12-17T13:41:17;1.20;99.90
4293;DHT22;2160;51.172;6.808;2022-12-17T13:43:48;1.30;99.90
4293;DHT22;2160;51.172;6.808;2022-12-17T13:46:20;1.30;99.90
4293;DHT22;2160;51.172;6.808;2022-12-17T13:48:55;1.40;99.90
4293;DHT22;2160;51.172;6.808;2022-12-17T13:51:26;1.40;99.90
4293;DHT22;2160;51.172;6.808;2022-12-17T13:53:58;1.40;99.90
4293;DHT22;2160;51.172;6.808;2022-12-17T13:56:28;1.40;99.90
4293;DHT22;2160;51.172;6.808;2022-12-17T13:59:03;1.50;99.90
4293;DHT22;2160;51.172;6.808;2022-12-17T14:01:31;1.40;99.90
4293;DHT22;2160;51.172;6.808;2022-12-17T14:04:00;1.50;99.90
4293;DHT22;2160;51.172;6.808;2022-12-17T14:06:32;1.50;99.90
4293;DHT22;2160;51.172;6.808;2022-12-17T14:09:00;1.70;99.90
4293;DHT22;2160;51.172;6.808;2022-12-17T14:11:29;1.70;99.90
4293;DHT22;2160;51.172;6.808;2022-12-17T14:14:24;1.70;99.90
4293;DHT22;2160;51.172;6.808;2022-12-17T14:16:53;1.80;99.90
4293;DHT22;2160;51.172;6.808;2022-12-17T14:19:20;1.70;99.90
4293;DHT22;2160;51.172;6.808;2022-12-17T14:21:48;1.70;99.90
4293;DHT22;2160;51.172;6.808;2022-12-17T14:24:17;1.70;99.90
4293;DHT22;2160;51.172;6.808;2022-12-17T14:26:52;1.80;99.90
4293;DHT22;2160;51.172;6.808;2022-12-17T14:29:26;1.80;99.90
4293;DHT22;2160;51.172;6.808;2022-12-17T14:32:00;1.80;99.90
4293;DHT22;2160;51.172;6.808;2022-12-17T14:34:39;1.80;99.90
4293;DHT22;2160;51.172;6.808;2022-12-17T14:37:16;1.80;99.90
4293;DHT22;2160;51.172;6.808;2022-12-17T14:39:46;1.80;99.90
4293;DHT22;2160;51.172;6.808;2022-12-17T14:55:54;1.60;99.90
4293;DHT22;2160;51.172;6.808;2022-12-17T14:58:43;1.70;99.90
4293;DHT22;2160;51.172;6.808;2022-12-17T15:01:37;1.70;99.90
4293;DHT22;2160;51.172;6.808;2022-12-17T15:04:18;1.70;99.90
4293;DHT22;2160;51.172;6.808;2022-12-17T15:06:46;1.60;99.90
4293;DHT22;2160;51.172;6.808;2022-12-17T15:09:14;1.50;99.90
4293;DHT22;2160;51.172;6.808;2022-12-17T15:11:42;1.50;99.90
4293;DHT22;2160;51.172;6.808;2022-12-17T15:14:09;1.50;99.90
4293;DHT22;2160;51.172;6.808;2022-12-17T15:16:37;1.50;99.90
4293;DHT22;2160;51.172;6.808;2022-12-17T15:19:11;1.50;99.90
4293;DHT22;2160;51.172;6.808;2022-12-17T15:21:41;1.80;99.90
4293;DHT22;2160;51.172;6.808;2022-12-17T15:24:17;1.60;99.90
4293;DHT22;2160;51.172;6.808;2022-12-17T15:26:48;1.50;99.90
4293;DHT22;2160;51.172;6.808;2022-12-17T15:29:15;1.50;99.90
4293;DHT22;2160;51.172;6.808;2022-12-17T15:31:43;1.40;99.90
4293;DHT22;2160;51.172;6.808;2022-12-17T15:34:13;1.40;99.90
4293;DHT22;2160;51.172;6.808;2022-12-17T15:36:40;1.40;99.90
4293;DHT22;2160;51.172;6.808;2022-12-17T15:39:07;1.40;99.90
4293;DHT22;2160;51.172;6.808;2022-12-17T15:41:34;1.40;99.90
4293;DHT22;2160;51.172;6.808;2022-12-17T15:44:20;1.30;99.90
4293;DHT22;2160;51.172;6.808;2022-12-17T15:46:47;1.20;99.90
4293;DHT22;2160;51.172;6.808;2022-12-17T15:49:13;1.10;99.90
4293;DHT22;2160;51.172;6.808;2022-12-17T15:51:42;1.10;99.90
4293;DHT22;2160;51.172;6.808;2022-12-17T15:54:09;1.10;99.90
4293;DHT22;2160;51.172;6.808;2022-12-17T15:56:36;1.00;99.90
4293;DHT22;2160;51.172;6.808;2022-12-17T15:59:03;1.10;99.90
4293;DHT22;2160;51.172;6.808;2022-12-17T16:01:31;1.00;99.90
4293;DHT22;2160;51.172;6.808;2022-12-17T16:03:59;0.90;99.90
4293;DHT22;2160;51.172;6.808;2022-12-17T16:06:26;0.90;99.90
4293;DHT22;2160;51.172;6.808;2022-12-17T16:08:53;0.80;99.90
4293;DHT22;2160;51.172;6.808;2022-12-17T16:11:20;0.80;99.90
4293;DHT22;2160;51.172;6.808;2022-12-17T16:13:52;0.90;99.90
4293;DHT22;2160;51.172;6.808;2022-12-17T16:16:23;0.90;99.90
4293;DHT22;2160;51.172;6.808;2022-12-17T16:18:52;0.80;99.90
4293;DHT22;2160;51.172;6.808;2022-12-17T16:21:19;0.80;99.90
4293;DHT22;2160;51.172;6.808;2022-12-17T16:23:46;0.80;99.90
4293;DHT22;2160;51.172;6.808;2022-12-17T16:26:12;0.80;99.90
4293;DHT22;2160;51.172;6.808;2022-12-17T16:28:39;0.90;99.90
4293;DHT22;2160;51.172;6.808;2022-12-17T16:31:08;1.00;99.90
4293;DHT22;2160;51.172;6.808;2022-12-17T16:33:38;0.90;99.90
4293;DHT22;2160;51.172;6.808;2022-12-17T16:36:09;0.90;99.90
4293;DHT22;2160;51.172;6.808;2022-12-17T16:38:42;0.90;99.90
4293;DHT22;2160;51.172;6.808;2022-12-17T16:41:09;1.00;99.90
4293;DHT22;2160;51.172;6.808;2022-12-17T16:43:35;1.00;99.90
4293;DHT22;2160;51.172;6.808;2022-12-17T16:46:03;1.00;99.90
4293;DHT22;2160;51.172;6.808;2022-12-17T16:48:35;1.00;99.90
4293;DHT22;2160;51.172;6.808;2022-12-17T16:51:15;1.00;99.90
4293;DHT22;2160;51.172;6.808;2022-12-17T16:53:42;1.00;99.90
4293;DHT22;2160;51.172;6.808;2022-12-17T16:56:14;1.00;99.90
4293;DHT22;2160;51.172;6.808;2022-12-17T16:58:41;1.00;99.90
4293;DHT22;2160;51.172;6.808;2022-12-17T17:01:09;1.00;99.90
4293;DHT22;2160;51.172;6.808;2022-12-17T17:03:38;1.00;99.90
4293;DHT22;2160;51.172;6.808;2022-12-17T17:06:05;1.00;99.90
4293;DHT22;2160;51.172;6.808;2022-12-17T17:08:34;1.00;99.90
4293;DHT22;2160;51.172;6.808;2022-12-17T17:11:07;1.00;99.90
4293;DHT22;2160;51.172;6.808;2022-12-17T17:13:34;0.90;99.90
4293;DHT22;2160;51.172;6.808;2022-12-17T17:16:01;0.90;99.90
4293;DHT22;2160;51.172;6.808;2022-12-17T17:18:38;1.00;99.90
4293;DHT22;2160;51.172;6.808;2022-12-17T17:21:15;1.00;99.90
4293;DHT22;2160;51.172;6.808;2022-12-17T17:23:44;0.90;99.90
4293;DHT22;2160;51.172;6.808;2022-12-17T17:26:12;0.80;99.90
4293;DHT22;2160;51.172;6.808;2022-12-17T17:28:40;0.90;99.90
4293;DHT22;2160;51.172;6.808;2022-12-17T17:31:11;0.80;99.90
4293;DHT22;2160;51.172;6.808;2022-12-17T17:33:40;0.80;99.90
4293;DHT22;2160;51.172;6.808;2022-12-17T17:36:09;0.80;99.90
4293;DHT22;2160;51.172;6.808;2022-12-17T17:38:38;0.80;99.90
4293;DHT22;2160;51.172;6.808;2022-12-17T17:41:11;0.80;99.90
4293;DHT22;2160;51.172;6.808;2022-12-17T17:43:38;0.70;99.90
4293;DHT22;2160;51.172;6.808;2022-12-17T17:46:06;0.80;99.90
4293;DHT22;2160;51.172;6.808;2022-12-17T17:48:33;0.80;99.90
4293;DHT22;2160;51.172;6.808;2022-12-17T17:51:02;0.80;99.90
4293;DHT22;2160;51.172;6.808;2022-12-17T17:53:29;0.70;99.90
4293;DHT22;2160;51.172;6.808;2022-12-17T17:56:02;0.80;99.90
4293;DHT22;2160;51.172;6.808;2022-12-17T17:58:31;0.80;99.90
4293;DHT22;2160;51.172;6.808;2022-12-17T18:01:05;0.90;99.90
4293;DHT22;2160;51.172;6.808;2022-12-17T18:03:32;0.80;99.90
4293;DHT22;2160;51.172;6.808;2022-12-17T18:06:04;0.80;99.90
4293;DHT22;2160;51.172;6.808;2022-12-17T18:08:31;0.80;99.90
4293;DHT22;2160;51.172;6.808;2022-12-17T18:11:00;0.80;99.90
4293;DHT22;2160;51.172;6.808;2022-12-17T18:13:32;0.70;99.90
4293;DHT22;2160;51.172;6.808;2022-12-17T18:16:17;0.60;99.90
4293;DHT22;2160;51.172;6.808;2022-12-17T18:18:44;0.80;99.90
4293;DHT22;2160;51.172;6.808;2022-12-17T18:21:12;0.70;99.90
4293;DHT22;2160;51.172;6.808;2022-12-17T18:23:41;0.70;99.90
4293;DHT22;2160;51.172;6.808;2022-12-17T18:26:14;0.70;99.90
4293;DHT22;2160;51.172;6.808;2022-12-17T18:28:46;0.50;99.90
4293;DHT22;2160;51.172;6.808;2022-12-17T18:31:15;0.60;99.90
4293;DHT22;2160;51.172;6.808;2022-12-17T18:33:47;0.60;99.90
4293;DHT22;2160;51.172;6.808;2022-12-17T18:36:19;0.60;99.90
4293;DHT22;2160;51.172;6.808;2022-12-17T18:38:54;0.80;99.90
4293;DHT22;2160;51.172;6.808;2022-12-17T18:47:05;0.70;99.90
4293;DHT22;2160;51.172;6.808;2022-12-17T18:49:44;0.50;99.90
4293;DHT22;2160;51.172;6.808;2022-12-17T18:52:11;0.60;99.90
4293;DHT22;2160;51.172;6.808;2022-12-17T18:55:12;0.60;99.90
4293;DHT22;2160;51.172;6.808;2022-12-17T18:57:57;0.60;99.90
4293;DHT22;2160;51.172;6.808;2022-12-17T19:00:29;0.70;99.90
4293;DHT22;2160;51.172;6.808;2022-12-17T19:03:08;0.70;99.90
4293;DHT22;2160;51.172;6.808;2022-12-17T19:05:37;0.70;99.90
4293;DHT22;2160;51.172;6.808;2022-12-17T19:08:05;0.50;99.90
4293;DHT22;2160;51.172;6.808;2022-12-17T19:10:33;0.60;99.90
4293;DHT22;2160;51.172;6.808;2022-12-17T19:13:02;0.60;99.90
4293;DHT22;2160;51.172;6.808;2022-12-17T19:15:29;0.60;99.90
4293;DHT22;2160;51.172;6.808;2022-12-17T19:17:55;0.70;99.90
4293;DHT22;2160;51.172;6.808;2022-12-17T19:20:24;0.70;99.90
4293;DHT22;2160;51.172;6.808;2022-12-17T19:22:51;0.70;99.90
4293;DHT22;2160;51.172;6.808;2022-12-17T19:25:18;0.70;99.90
4293;DHT22;2160;51.172;6.808;2022-12-17T19:27:45;0.90;99.90
4293;DHT22;2160;51.172;6.808;2022-12-17T19:30:12;0.80;99.90
4293;DHT22;2160;51.172;6.808;2022-12-17T19:32:39;0.70;99.90
4293;DHT22;2160;51.172;6.808;2022-12-17T19:35:07;0.70;99.90
4293;DHT22;2160;51.172;6.808;2022-12-17T19:37:35;0.70;99.90
4293;DHT22;2160;51.172;6.808;2022-12-17T19:40:02;0.60;99.90
4293;DHT22;2160;51.172;6.808;2022-12-17T19:42:30;0.60;99.90
4293;DHT22;2160;51.172;6.808;2022-12-17T19:44:57;0.50;99.90
4293;DHT22;2160;51.172;6.808;2022-12-17T19:47:24;0.50;99.90
4293;DHT22;2160;51.172;6.808;2022-12-17T19:49:50;0.60;99.90
4293;DHT22;2160;51.172;6.808;2022-12-17T19:52:17;0.60;99.90
4293;DHT22;2160;51.172;6.808;2022-12-17T19:54:46;0.80;99.90
4293;DHT22;2160;51.172;6.808;2022-12-17T19:57:14;0.70;99.90
4293;DHT22;2160;51.172;6.808;2022-12-17T19:59:41;0.60;99.90
4293;DHT22;2160;51.172;6.808;2022-12-17T20:02:08;0.60;99.90
4293;DHT22;2160;51.172;6.808;2022-12-17T20:04:36;0.60;99.90
4293;DHT22;2160;51.172;6.808;2022-12-17T20:07:09;0.60;99.90
4293;DHT22;2160;51.172;6.808;2022-12-17T20:09:36;0.60;99.90
4293;DHT22;2160;51.172;6.808;2022-12-17T20:12:06;0.70;99.90
4293;DHT22;2160;51.172;6.808;2022-12-17T20:14:33;0.70;99.90
4293;DHT22;2160;51.172;6.808;2022-12-17T20:17:02;0.70;99.90
4293;DHT22;2160;51.172;6.808;2022-12-17T20:19:31;0.60;99.90
4293;DHT22;2160;51.172;6.808;2022-12-17T20:22:00;0.80;99.90
4293;DHT22;2160;51.172;6.808;2022-12-17T20:24:27;0.70;99.90
4293;DHT22;2160;51.172;6.808;2022-12-17T20:26:55;0.70;99.90
4293;DHT22;2160;51.172;6.808;2022-12-17T20:29:23;0.70;99.90
4293;DHT22;2160;51.172;6.808;2022-12-17T20:31:51;0.70;99.90
4293;DHT22;2160;51.172;6.808;2022-12-17T20:34:19;0.70;99.90
4293;DHT22;2160;51.172;6.808;2022-12-17T20:36:49;0.70;99.90
4293;DHT22;2160;51.172;6.808;2022-12-17T20:39:16;0.60;99.90
4293;DHT22;2160;51.172;6.808;2022-12-17T20:41:43;0.60;99.90
4293;DHT22;2160;51.172;6.808;2022-12-17T20:44:12;0.70;99.90
4293;DHT22;2160;51.172;6.808;2022-12-17T20:46:41;0.60;99.90
4293;DHT22;2160;51.172;6.808;2022-12-17T20:49:10;0.60;99.90
4293;DHT22;2160;51.172;6.808;2022-12-17T20:51:39;0.60;99.90
4293;DHT22;2160;51.172;6.808;2022-12-17T20:54:06;0.70;99.90
4293;DHT22;2160;51.172;6.808;2022-12-17T20:56:34;0.70;99.90
4293;DHT22;2160;51.172;6.808;2022-12-17T20:59:04;0.60;99.90
4293;DHT22;2160;51.172;6.808;2022-12-17T21:01:32;0.60;99.90
4293;DHT22;2160;51.172;6.808;2022-12-17T21:04:02;0.60;99.90
4293;DHT22;2160;51.172;6.808;2022-12-17T21:06:35;0.80;99.90
4293;DHT22;2160;51.172;6.808;2022-12-17T21:09:03;0.60;99.90
4293;DHT22;2160;51.172;6.808;2022-12-17T21:11:31;0.60;99.90
4293;DHT22;2160;51.172;6.808;2022-12-17T21:14:02;0.50;99.90
4293;DHT22;2160;51.172;6.808;2022-12-17T21:16:30;0.60;99.90
4293;DHT22;2160;51.172;6.808;2022-12-17T21:18:59;0.60;99.90
4293;DHT22;2160;51.172;6.808;2022-12-17T21:21:30;0.60;99.90
4293;DHT22;2160;51.172;6.808;2022-12-17T21:23:57;0.50;99.90
4293;DHT22;2160;51.172;6.808;2022-12-17T21:26:27;0.60;99.90
4293;DHT22;2160;51.172;6.808;2022-12-17T21:28:55;0.60;99.90
4293;DHT22;2160;51.172;6.808;2022-12-17T21:31:24;0.70;99.90
4293;DHT22;2160;51.172;6.808;2022-12-17T21:33:53;0.70;99.90
4293;DHT22;2160;51.172;6.808;2022-12-17T21:36:21;0.70;99.90
4293;DHT22;2160;51.172;6.808;2022-12-17T21:38:51;0.60;99.90
4293;DHT22;2160;51.172;6.808;2022-12-17T21:41:22;0.60;99.90
4293;DHT22;2160;51.172;6.808;2022-12-17T21:43:54;0.60;99.90
4293;DHT22;2160;51.172;6.808;2022-12-17T21:46:32;0.60;99.90
4293;DHT22;2160;51.172;6.808;2022-12-17T21:49:10;0.60;99.90
4293;DHT22;2160;51.172;6.808;2022-12-17T21:51:44;0.50;99.90
4293;DHT22;2160;51.172;6.808;2022-12-17T21:54:37;0.50;99.90
4293;DHT22;2160;51.172;6.808;2022-12-17T21:57:24;0.60;99.90
4293;DHT22;2160;51.172;6.808;2022-12-17T22:00:43;0.60;99.90
4293;DHT22;2160;51.172;6.808;2022-12-17T22:03:23;0.30;99.90
4293;DHT22;2160;51.172;6.808;2022-12-17T22:05:53;0.50;99.90
4293;DHT22;2160;51.172;6.808;2022-12-17T22:08:23;0.60;99.90
4293;DHT22;2160;51.172;6.808;2022-12-17T22:11:22;0.70;99.90
4293;DHT22;2160;51.172;6.808;2022-12-17T22:14:05;0.70;99.90
4293;DHT22;2160;51.172;6.808;2022-12-17T22:17:01;0.70;99.90
4293;DHT22;2160;51.172;6.808;2022-12-17T22:19:32;0.80;99.90
4293;DHT22;2160;51.172;6.808;2022-12-17T22:22:34;0.80;99.90
4293;DHT22;2160;51.172;6.808;2022-12-17T22:25:44;0.70;99.90
4293;DHT22;2160;51.172;6.808;2022-12-17T22:28:23;0.70;99.90
4293;DHT22;2160;51.172;6.808;2022-12-17T22:30:56;0.60;99.90
4293;DHT22;2160;51.172;6.808;2022-12-17T22:33:40;0.50;99.90
4293;DHT22;2160;51.172;6.808;2022-12-17T22:36:07;0.20;99.90
4293;DHT22;2160;51.172;6.808;2022-12-17T22:38:35;0.50;99.90
4293;DHT22;2160;51.172;6.808;2022-12-17T22:41:04;0.40;99.90
4293;DHT22;2160;51.172;6.808;2022-12-17T22:43:40;0.40;99.90
4293;DHT22;2160;51.172;6.808;2022-12-17T22:46:24;0.60;99.90
4293;DHT22;2160;51.172;6.808;2022-12-17T22:49:13;0.60;99.90
4293;DHT22;2160;51.172;6.808;2022-12-17T22:51:41;0.50;99.90
4293;DHT22;2160;51.172;6.808;2022-12-17T22:54:11;0.60;99.90
4293;DHT22;2160;51.172;6.808;2022-12-17T22:56:42;0.50;99.90